Time;durP1;ratioP1;P1;durP2;ratioP2;P2;SDS_P1;SDS_P2;PMS_P1;PMS_P2;Temp;Humidity;BMP_temperature;BMP_pressure;BME280_temperature;BME280_humidity;BME280_pressure;Samples;Min_cycle;Max_cycle;Signal;HPM_P1;HPM_P2
2021/12/14 00:01:38;;;;;;;25.47;18.63;;;;;;;;;;5000684;28;20497;-86
2021/12/14 00:04:06;;;;;;;21.63;17.90;;;;;;;;;;5001262;28;20484;-85
2021/12/14 00:06:34;;;;;;;20.13;16.17;;;;;;;;;;5000041;28;20833;-86
2021/12/14 00:09:02;;;;;;;21.97;17.93;;;;;;;;;;5001223;28;20468;-86
2021/12/14 00:11:46;;;;;;;21.50;16.27;;;;;;;;;;5001055;28;20457;-87
2021/12/14 00:14:27;;;;;;;28.60;17.70;;;;;;;;;;5001980;28;20520;-86
2021/12/14 00:16:56;;;;;;;22.83;17.70;;;;;;;;;;5001783;28;20473;-86
2021/12/14 00:19:23;;;;;;;25.20;18.57;;;;;;;;;;5000035;28;20729;-86
2021/12/14 00:21:53;;;;;;;23.53;17.80;;;;;;;;;;5001097;28;20474;-85
2021/12/14 00:24:19;;;;;;;24.83;17.40;;;;;;;;;;4999834;28;21015;-85
2021/12/14 00:26:47;;;;;;;21.83;17.90;;;;;;;;;;5000206;28;20472;-86
2021/12/14 00:29:15;;;;;;;23.43;17.83;;;;;;;;;;5001044;28;20868;-85
2021/12/14 00:31:42;;;;;;;21.47;17.40;;;;;;;;;;4999143;28;20485;-86
2021/12/14 00:34:08;;;;;;;22.03;17.37;;;;;;;;;;5003391;28;20457;-86
2021/12/14 00:36:36;;;;;;;24.10;18.17;;;;;;;;;;5002519;28;20490;-85
2021/12/14 00:39:06;;;;;;;20.87;18.03;;;;;;;;;;5005193;28;20552;-85
2021/12/14 00:41:34;;;;;;;21.93;18.40;;;;;;;;;;5003782;28;20984;-85
2021/12/14 00:44:01;;;;;;;23.23;17.60;;;;;;;;;;5005273;28;20530;-86
2021/12/14 00:46:28;;;;;;;21.00;18.37;;;;;;;;;;5003764;28;20975;-85
2021/12/14 00:48:54;;;;;;;22.03;17.17;;;;;;;;;;5003154;28;20441;-85
2021/12/14 00:51:26;;;;;;;19.57;17.00;;;;;;;;;;5004341;28;20507;-86
2021/12/14 00:53:52;;;;;;;22.83;17.63;;;;;;;;;;5003891;28;20474;-83
2021/12/14 00:56:20;;;;;;;24.57;18.10;;;;;;;;;;5003266;28;20459;-85
2021/12/14 00:58:46;;;;;;;20.80;16.50;;;;;;;;;;5005024;28;20477;-84
2021/12/14 01:01:16;;;;;;;21.40;17.87;;;;;;;;;;5005195;28;20468;-83
2021/12/14 01:03:44;;;;;;;23.50;17.13;;;;;;;;;;5003232;28;20969;-83
2021/12/14 01:06:11;;;;;;;31.93;18.53;;;;;;;;;;5003731;28;21636;-84
2021/12/14 01:08:40;;;;;;;20.63;16.90;;;;;;;;;;5003817;28;20478;-84
2021/12/14 01:11:11;;;;;;;25.40;18.00;;;;;;;;;;5003597;28;20883;-83
2021/12/14 01:13:44;;;;;;;21.03;16.57;;;;;;;;;;5002617;28;20871;-86
2021/12/14 01:16:16;;;;;;;22.03;16.77;;;;;;;;;;5002343;28;20476;-85
2021/12/14 01:18:49;;;;;;;22.57;17.83;;;;;;;;;;5002633;28;20524;-83
2021/12/14 01:21:24;;;;;;;20.60;16.83;;;;;;;;;;5003695;28;20840;-85
2021/12/14 01:24:00;;;;;;;23.00;16.30;;;;;;;;;;5003237;28;20528;-84
2021/12/14 01:26:29;;;;;;;19.20;16.23;;;;;;;;;;5003090;28;20450;-86
2021/12/14 01:28:56;;;;;;;20.30;15.63;;;;;;;;;;5005380;28;20481;-85
2021/12/14 01:31:28;;;;;;;21.60;16.20;;;;;;;;;;5003379;28;20978;-84
2021/12/14 01:33:56;;;;;;;24.17;15.70;;;;;;;;;;5004104;28;20574;-85
2021/12/14 01:36:27;;;;;;;21.03;16.73;;;;;;;;;;5001914;28;20524;-85
2021/12/14 01:39:10;;;;;;;20.30;14.83;;;;;;;;;;5001238;28;20486;-84
2021/12/14 01:41:37;;;;;;;17.63;15.70;;;;;;;;;;5002046;28;20486;-86
2021/12/14 01:44:05;;;;;;;18.43;15.43;;;;;;;;;;5001953;28;21030;-86
2021/12/14 01:46:32;;;;;;;20.20;16.00;;;;;;;;;;5001892;28;20489;-87
2021/12/14 01:49:04;;;;;;;19.17;15.73;;;;;;;;;;5003679;28;20516;-84
2021/12/14 01:51:30;;;;;;;18.00;14.50;;;;;;;;;;5003130;28;20454;-86
2021/12/14 01:53:57;;;;;;;17.20;14.30;;;;;;;;;;5002910;28;20462;-84
2021/12/14 01:56:25;;;;;;;20.40;14.50;;;;;;;;;;5004007;28;20445;-84
2021/12/14 01:58:54;;;;;;;19.90;14.60;;;;;;;;;;5001937;28;20481;-84
2021/12/14 02:01:24;;;;;;;20.23;14.77;;;;;;;;;;5000238;28;20461;-84
2021/12/14 02:03:52;;;;;;;21.37;14.37;;;;;;;;;;5000713;28;20565;-85
2021/12/14 02:06:21;;;;;;;24.87;14.80;;;;;;;;;;5003179;28;20469;-85
2021/12/14 02:08:53;;;;;;;23.33;15.20;;;;;;;;;;5001724;28;20479;-86
2021/12/14 02:11:20;;;;;;;18.47;14.90;;;;;;;;;;5002464;28;20461;-83
2021/12/14 02:13:47;;;;;;;19.70;15.37;;;;;;;;;;5003492;28;20473;-85
2021/12/14 02:16:15;;;;;;;19.23;15.50;;;;;;;;;;5003099;28;20590;-87
2021/12/14 02:18:45;;;;;;;18.00;14.93;;;;;;;;;;5001339;28;20477;-84
2021/12/14 02:21:13;;;;;;;17.93;15.07;;;;;;;;;;5004169;28;20457;-84
2021/12/14 02:23:43;;;;;;;20.33;14.80;;;;;;;;;;5003593;28;20529;-84
2021/12/14 02:26:11;;;;;;;21.17;13.83;;;;;;;;;;5004042;28;20504;-84
2021/12/14 02:28:38;;;;;;;16.27;13.33;;;;;;;;;;5004157;28;20468;-84
2021/12/14 02:31:06;;;;;;;19.00;13.47;;;;;;;;;;5001764;28;20461;-85
2021/12/14 02:33:33;;;;;;;16.80;12.70;;;;;;;;;;5005264;28;20513;-84
2021/12/14 02:36:00;;;;;;;16.93;13.53;;;;;;;;;;5005289;28;20816;-85
2021/12/14 02:38:28;;;;;;;17.60;12.40;;;;;;;;;;5003520;28;20544;-84
2021/12/14 02:40:57;;;;;;;15.07;12.17;;;;;;;;;;5002346;28;20450;-86
2021/12/14 02:43:26;;;;;;;18.97;13.47;;;;;;;;;;5004176;28;20506;-86
2021/12/14 02:45:54;;;;;;;16.70;13.20;;;;;;;;;;5001296;28;20450;-85
2021/12/14 02:48:23;;;;;;;16.27;13.37;;;;;;;;;;5001959;28;20509;-87
2021/12/14 02:50:49;;;;;;;16.00;12.53;;;;;;;;;;5003768;28;20457;-84
2021/12/14 02:53:16;;;;;;;16.80;13.37;;;;;;;;;;5001484;28;20527;-85
2021/12/14 02:55:43;;;;;;;16.90;12.90;;;;;;;;;;5001570;28;20458;-85
2021/12/14 02:58:10;;;;;;;13.87;12.37;;;;;;;;;;5000844;28;20525;-85
2021/12/14 03:00:38;;;;;;;14.63;11.03;;;;;;;;;;5002460;28;20974;-85
2021/12/14 03:03:05;;;;;;;17.40;12.97;;;;;;;;;;5122391;22;20493;-82
2021/12/14 03:05:33;;;;;;;19.80;13.57;;;;;;;;;;5025553;28;20451;-82
2021/12/14 03:08:00;;;;;;;15.30;12.17;;;;;;;;;;5027338;28;20477;-78
2021/12/14 03:10:50;;;;;;;16.73;12.17;;;;;;;;;;5026932;28;20554;-82
2021/12/14 03:13:18;;;;;;;16.53;12.90;;;;;;;;;;5025984;28;20484;-79
2021/12/14 03:15:50;;;;;;;16.43;12.23;;;;;;;;;;5021475;28;20457;-80
2021/12/14 03:18:18;;;;;;;14.53;11.60;;;;;;;;;;5023093;28;20480;-80
2021/12/14 03:20:45;;;;;;;18.50;12.77;;;;;;;;;;5026210;28;20994;-82
2021/12/14 03:23:13;;;;;;;14.80;11.60;;;;;;;;;;5026078;28;20490;-82
2021/12/14 03:25:42;;;;;;;13.87;12.50;;;;;;;;;;5023573;28;20465;-79
2021/12/14 03:28:09;;;;;;;15.70;13.10;;;;;;;;;;5024380;28;20464;-80
2021/12/14 03:30:40;;;;;;;13.50;11.17;;;;;;;;;;5024686;28;20441;-79
2021/12/14 03:33:08;;;;;;;18.40;11.60;;;;;;;;;;5024095;28;20499;-79
2021/12/14 03:35:36;;;;;;;13.60;11.57;;;;;;;;;;5024065;28;20819;-80
2021/12/14 03:38:06;;;;;;;14.97;13.30;;;;;;;;;;5023420;28;21076;-79
2021/12/14 03:40:32;;;;;;;13.37;11.00;;;;;;;;;;5023644;28;20461;-80
2021/12/14 03:42:59;;;;;;;14.63;13.03;;;;;;;;;;5023186;28;20491;-80
2021/12/14 03:45:25;;;;;;;15.57;11.80;;;;;;;;;;5023434;28;20989;-80
2021/12/14 03:47:54;;;;;;;16.03;12.43;;;;;;;;;;5024709;28;20477;-80
2021/12/14 03:50:23;;;;;;;15.40;11.77;;;;;;;;;;5023193;28;20498;-79
2021/12/14 03:52:49;;;;;;;16.77;11.83;;;;;;;;;;5021619;28;20477;-80
2021/12/14 03:55:18;;;;;;;14.87;12.87;;;;;;;;;;5022556;28;20531;-79
2021/12/14 03:57:44;;;;;;;16.57;12.93;;;;;;;;;;5022592;28;20480;-79
2021/12/14 04:00:12;;;;;;;19.97;12.40;;;;;;;;;;5023783;28;20484;-80
2021/12/14 04:02:39;;;;;;;17.23;13.00;;;;;;;;;;5023642;28;20485;-80
2021/12/14 04:05:11;;;;;;;17.37;12.70;;;;;;;;;;5023506;28;20536;-79
2021/12/14 04:07:40;;;;;;;23.73;13.07;;;;;;;;;;5024502;28;20465;-80
2021/12/14 04:10:07;;;;;;;17.60;13.87;;;;;;;;;;5027549;28;20572;-79
2021/12/14 04:12:34;;;;;;;19.90;13.30;;;;;;;;;;5026445;28;20481;-79
2021/12/14 04:15:00;;;;;;;17.97;13.07;;;;;;;;;;5026007;28;20496;-79
2021/12/14 04:17:28;;;;;;;22.20;14.57;;;;;;;;;;5024002;28;20476;-80
2021/12/14 04:19:55;;;;;;;17.93;15.07;;;;;;;;;;5027249;28;20488;-79
2021/12/14 04:22:24;;;;;;;20.90;13.43;;;;;;;;;;5027379;28;21211;-80
2021/12/14 04:24:52;;;;;;;20.33;14.13;;;;;;;;;;5026980;28;20462;-79
2021/12/14 04:27:20;;;;;;;19.37;15.73;;;;;;;;;;5025817;28;20489;-79
2021/12/14 04:29:46;;;;;;;20.60;15.70;;;;;;;;;;5026652;28;20445;-80
2021/12/14 04:32:14;;;;;;;20.57;14.20;;;;;;;;;;5026838;28;20469;-79
2021/12/14 04:34:41;;;;;;;21.60;15.17;;;;;;;;;;5026948;28;20457;-80
2021/12/14 04:37:09;;;;;;;20.20;15.30;;;;;;;;;;5024650;28;21049;-79
2021/12/14 04:39:42;;;;;;;22.20;16.63;;;;;;;;;;5027958;28;20506;-79
2021/12/14 04:53:17;;;;;;;22.77;16.50;;;;;;;;;;5027815;28;20491;-79
2021/12/14 04:55:46;;;;;;;24.83;17.40;;;;;;;;;;5026204;28;20448;-79
2021/12/14 04:58:13;;;;;;;22.33;16.00;;;;;;;;;;5026171;28;20484;-79
2021/12/14 05:00:42;;;;;;;24.33;15.67;;;;;;;;;;5023389;28;20466;-79
2021/12/14 05:03:12;;;;;;;25.03;16.40;;;;;;;;;;5027257;28;20476;-80
2021/12/14 05:05:46;;;;;;;22.00;15.73;;;;;;;;;;5024797;28;20504;-79
2021/12/14 05:10:59;;;;;;;26.50;14.83;;;;;;;;;;5025425;28;20503;-79
2021/12/14 05:13:27;;;;;;;25.57;16.90;;;;;;;;;;5023928;28;20558;-80
2021/12/14 05:15:54;;;;;;;23.13;16.73;;;;;;;;;;5025482;28;20927;-80
2021/12/14 05:18:20;;;;;;;24.97;16.57;;;;;;;;;;5024673;28;20496;-79
2021/12/14 05:20:47;;;;;;;24.30;16.27;;;;;;;;;;5025029;28;20970;-79
2021/12/14 05:23:19;;;;;;;23.60;15.83;;;;;;;;;;5025368;28;20477;-79
2021/12/14 05:25:46;;;;;;;25.00;16.77;;;;;;;;;;5027124;28;20449;-80
2021/12/14 05:28:15;;;;;;;22.43;16.27;;;;;;;;;;5026039;28;20495;-80
2021/12/14 05:30:43;;;;;;;28.03;18.30;;;;;;;;;;5024451;28;20457;-78
2021/12/14 05:33:11;;;;;;;26.03;17.20;;;;;;;;;;5026958;28;20493;-80
2021/12/14 05:35:39;;;;;;;28.27;18.20;;;;;;;;;;5025657;28;20458;-79
2021/12/14 05:38:09;;;;;;;20.80;16.40;;;;;;;;;;5023690;28;20473;-79
2021/12/14 05:40:56;;;;;;;25.53;17.07;;;;;;;;;;5024090;28;20544;-79
2021/12/14 05:43:24;;;;;;;28.10;17.57;;;;;;;;;;5026753;28;20496;-79
2021/12/14 05:45:53;;;;;;;26.97;17.30;;;;;;;;;;5027279;28;20827;-81
2021/12/14 05:48:20;;;;;;;24.00;15.90;;;;;;;;;;5025484;28;20480;-80
2021/12/14 05:50:50;;;;;;;23.80;16.87;;;;;;;;;;5025000;28;20454;-79
2021/12/14 05:53:18;;;;;;;25.37;17.07;;;;;;;;;;5024040;28;20496;-80
2021/12/14 05:55:45;;;;;;;25.07;18.13;;;;;;;;;;5025773;28;20472;-79
2021/12/14 05:58:12;;;;;;;24.97;18.87;;;;;;;;;;5025164;28;20476;-80
2021/12/14 06:00:43;;;;;;;29.13;17.80;;;;;;;;;;5027320;28;20464;-80
2021/12/14 06:03:14;;;;;;;26.60;17.37;;;;;;;;;;5025483;28;20481;-80
2021/12/14 06:05:40;;;;;;;28.90;18.00;;;;;;;;;;5026917;28;20437;-80
2021/12/14 06:08:06;;;;;;;27.80;17.20;;;;;;;;;;5027552;28;20488;-79
2021/12/14 06:10:33;;;;;;;28.80;19.03;;;;;;;;;;5028736;28;20504;-80
2021/12/14 06:12:59;;;;;;;30.30;19.43;;;;;;;;;;5026528;28;20480;-80
2021/12/14 06:15:28;;;;;;;27.37;18.10;;;;;;;;;;5025900;28;21044;-80
2021/12/14 06:17:56;;;;;;;30.00;18.10;;;;;;;;;;5028064;28;20468;-80
2021/12/14 06:20:24;;;;;;;31.43;19.27;;;;;;;;;;5027725;28;20499;-79
2021/12/14 06:22:52;;;;;;;28.53;18.13;;;;;;;;;;5027893;28;20489;-80
2021/12/14 06:25:20;;;;;;;28.97;18.20;;;;;;;;;;5024934;28;20471;-80
2021/12/14 06:27:47;;;;;;;29.87;19.47;;;;;;;;;;5025807;28;20469;-80
2021/12/14 06:30:14;;;;;;;28.80;19.37;;;;;;;;;;5021375;28;20508;-80
2021/12/14 06:32:44;;;;;;;29.70;18.67;;;;;;;;;;5020241;28;20488;-80
2021/12/14 06:35:15;;;;;;;28.43;18.50;;;;;;;;;;5020831;28;20458;-80
2021/12/14 06:38:10;;;;;;;30.13;19.50;;;;;;;;;;5026376;28;20465;-80
2021/12/14 06:40:38;;;;;;;29.93;19.53;;;;;;;;;;5028196;28;20492;-81
2021/12/14 06:43:08;;;;;;;29.60;19.70;;;;;;;;;;5025895;28;20523;-81
2021/12/14 06:45:36;;;;;;;35.27;21.63;;;;;;;;;;5029288;28;20449;-80
2021/12/14 06:48:05;;;;;;;30.67;21.40;;;;;;;;;;5026690;28;20485;-80
2021/12/14 06:50:35;;;;;;;31.93;20.87;;;;;;;;;;5027330;28;20511;-81
2021/12/14 06:53:02;;;;;;;29.60;20.60;;;;;;;;;;5024484;28;20489;-80
2021/12/14 06:55:29;;;;;;;35.50;20.50;;;;;;;;;;5024522;28;20511;-81
2021/12/14 06:58:05;;;;;;;32.40;20.60;;;;;;;;;;5022628;28;20613;-80
2021/12/14 07:00:32;;;;;;;29.10;20.67;;;;;;;;;;5024711;28;20535;-80
2021/12/14 07:02:58;;;;;;;31.57;21.27;;;;;;;;;;5025061;28;20469;-80
2021/12/14 07:05:26;;;;;;;32.60;21.67;;;;;;;;;;5024393;28;20858;-81
2021/12/14 07:07:53;;;;;;;37.57;23.50;;;;;;;;;;5025095;28;20862;-80
2021/12/14 07:10:20;;;;;;;32.37;21.00;;;;;;;;;;5024007;28;20453;-80
2021/12/14 07:12:46;;;;;;;32.50;21.27;;;;;;;;;;5022383;28;20485;-81
2021/12/14 07:15:16;;;;;;;37.33;22.40;;;;;;;;;;5022891;28;20465;-81
2021/12/14 07:17:45;;;;;;;34.33;22.40;;;;;;;;;;5025795;28;20468;-78
2021/12/14 07:20:21;;;;;;;39.13;22.57;;;;;;;;;;5025371;28;20481;-81
2021/12/14 07:22:49;;;;;;;32.47;22.23;;;;;;;;;;5024580;28;20985;-80
2021/12/14 07:25:20;;;;;;;33.63;22.37;;;;;;;;;;5026474;28;20547;-81
2021/12/14 07:27:47;;;;;;;35.43;22.00;;;;;;;;;;5023892;28;20995;-81
2021/12/14 07:30:17;;;;;;;35.57;23.67;;;;;;;;;;5023475;28;20462;-81
2021/12/14 07:32:48;;;;;;;35.27;23.07;;;;;;;;;;5024251;28;20896;-80
2021/12/14 07:35:27;;;;;;;34.60;23.77;;;;;;;;;;5025297;28;20460;-80
2021/12/14 07:37:54;;;;;;;36.83;24.40;;;;;;;;;;5025704;28;20559;-81
2021/12/14 07:40:22;;;;;;;38.30;24.13;;;;;;;;;;5023296;28;20481;-80
2021/12/14 07:42:48;;;;;;;38.83;24.37;;;;;;;;;;5025241;28;20474;-80
2021/12/14 07:45:23;;;;;;;41.23;24.17;;;;;;;;;;5023411;28;20477;-80
2021/12/14 07:47:50;;;;;;;40.10;23.63;;;;;;;;;;5025014;28;20477;-80
2021/12/14 07:50:16;;;;;;;44.57;24.47;;;;;;;;;;5025092;28;20452;-81
2021/12/14 07:52:43;;;;;;;37.97;24.60;;;;;;;;;;5024603;28;20500;-79
2021/12/14 07:55:11;;;;;;;37.40;24.13;;;;;;;;;;5024704;28;20938;-81
2021/12/14 07:57:39;;;;;;;42.43;27.67;;;;;;;;;;5026043;28;20468;-80
2021/12/14 08:00:08;;;;;;;39.03;24.43;;;;;;;;;;5024972;28;20480;-81
2021/12/14 08:02:36;;;;;;;42.30;26.17;;;;;;;;;;5025563;28;20485;-80
2021/12/14 08:05:06;;;;;;;43.00;25.77;;;;;;;;;;5024591;28;20464;-82
2021/12/14 08:07:33;;;;;;;39.63;26.10;;;;;;;;;;5024722;28;20516;-81
2021/12/14 08:10:06;;;;;;;40.90;26.30;;;;;;;;;;5025214;28;20832;-81
2021/12/14 08:12:35;;;;;;;43.80;28.30;;;;;;;;;;5025188;28;20599;-81
2021/12/14 08:15:23;;;;;;;43.73;27.13;;;;;;;;;;5024379;28;20449;-81
2021/12/14 08:17:59;;;;;;;43.73;26.83;;;;;;;;;;5022755;28;20469;-80
2021/12/14 08:20:27;;;;;;;39.80;25.63;;;;;;;;;;5025507;28;20494;-80
2021/12/14 08:22:54;;;;;;;44.70;27.50;;;;;;;;;;5025499;28;20560;-80
2021/12/14 08:25:23;;;;;;;39.97;27.27;;;;;;;;;;5025642;28;20449;-80
2021/12/14 08:27:56;;;;;;;47.03;27.53;;;;;;;;;;5025418;28;20460;-80
2021/12/14 08:30:22;;;;;;;41.37;27.50;;;;;;;;;;5024658;28;20444;-81
2021/12/14 08:32:49;;;;;;;44.97;27.40;;;;;;;;;;5024348;28;20475;-81
2021/12/14 08:35:16;;;;;;;39.17;26.40;;;;;;;;;;5026105;28;20449;-81
2021/12/14 08:37:44;;;;;;;39.13;27.20;;;;;;;;;;5025519;28;20473;-80
2021/12/14 08:40:12;;;;;;;46.23;28.17;;;;;;;;;;5023749;28;20484;-81
2021/12/14 08:42:46;;;;;;;45.87;28.00;;;;;;;;;;5025402;28;21136;-80
2021/12/14 08:45:26;;;;;;;41.80;28.90;;;;;;;;;;5023545;28;20474;-81
2021/12/14 08:47:54;;;;;;;45.67;27.13;;;;;;;;;;5025716;28;20471;-81
2021/12/14 08:50:22;;;;;;;49.37;30.60;;;;;;;;;;5024093;28;20475;-81
2021/12/14 08:52:50;;;;;;;47.30;29.00;;;;;;;;;;5026925;28;20528;-80
2021/12/14 08:55:17;;;;;;;47.10;29.57;;;;;;;;;;5027058;28;20438;-81
2021/12/14 08:57:43;;;;;;;48.03;30.83;;;;;;;;;;5029201;28;20480;-78
2021/12/14 09:00:13;;;;;;;47.13;29.67;;;;;;;;;;5027895;28;20488;-81
2021/12/14 09:02:39;;;;;;;49.23;29.87;;;;;;;;;;5025205;28;20855;-81
2021/12/14 09:05:09;;;;;;;47.10;28.67;;;;;;;;;;5028905;28;20465;-80
2021/12/14 09:07:36;;;;;;;45.73;28.80;;;;;;;;;;5029332;28;20805;-81
2021/12/14 09:10:06;;;;;;;47.70;27.30;;;;;;;;;;5027869;28;20433;-80
2021/12/14 09:12:36;;;;;;;46.87;28.87;;;;;;;;;;5028078;28;20481;-81
2021/12/14 09:15:05;;;;;;;42.73;28.70;;;;;;;;;;5029004;28;20461;-81
2021/12/14 09:17:31;;;;;;;51.30;30.53;;;;;;;;;;5027741;28;20917;-81
2021/12/14 09:19:59;;;;;;;55.57;31.87;;;;;;;;;;5024702;28;20480;-80
2021/12/14 09:22:27;;;;;;;43.10;27.70;;;;;;;;;;5026226;28;20563;-80
2021/12/14 09:24:54;;;;;;;55.40;32.30;;;;;;;;;;5028556;28;20468;-81
2021/12/14 09:27:22;;;;;;;53.60;32.40;;;;;;;;;;5028053;28;20469;-83
2021/12/14 09:29:49;;;;;;;51.27;30.60;;;;;;;;;;5028874;28;20458;-81
2021/12/14 09:32:19;;;;;;;56.77;32.60;;;;;;;;;;5026819;28;20537;-81
2021/12/14 09:34:46;;;;;;;47.73;29.80;;;;;;;;;;5028481;28;20457;-81
2021/12/14 09:37:13;;;;;;;49.83;31.10;;;;;;;;;;5026772;28;20816;-80
2021/12/14 09:39:42;;;;;;;48.47;31.17;;;;;;;;;;5027619;28;20482;-81
2021/12/14 09:42:12;;;;;;;52.37;32.73;;;;;;;;;;5028046;28;20477;-80
2021/12/14 09:44:38;;;;;;;57.40;32.87;;;;;;;;;;5028111;28;20944;-82
2021/12/14 09:47:09;;;;;;;56.40;33.27;;;;;;;;;;5026923;28;20471;-81
2021/12/14 09:49:36;;;;;;;53.90;32.20;;;;;;;;;;5027695;28;20457;-81
2021/12/14 09:52:04;;;;;;;53.40;31.23;;;;;;;;;;5027365;28;20504;-81
2021/12/14 09:54:31;;;;;;;55.77;33.80;;;;;;;;;;5028872;28;20465;-80
2021/12/14 09:56:59;;;;;;;55.53;32.10;;;;;;;;;;5027082;28;20484;-80
2021/12/14 09:59:27;;;;;;;54.10;32.47;;;;;;;;;;5027363;28;20450;-81
2021/12/14 10:01:56;;;;;;;59.83;37.40;;;;;;;;;;5027062;28;20465;-81
2021/12/14 10:04:24;;;;;;;63.27;34.97;;;;;;;;;;5029890;28;20475;-80
2021/12/14 10:06:50;;;;;;;57.87;33.20;;;;;;;;;;5027764;28;20491;-81
2021/12/14 10:09:18;;;;;;;56.13;33.67;;;;;;;;;;5026663;28;20464;-80
2021/12/14 10:12:00;;;;;;;57.20;34.17;;;;;;;;;;5027758;28;20503;-80
2021/12/14 10:14:29;;;;;;;65.17;37.57;;;;;;;;;;5028066;28;20477;-81
2021/12/14 10:16:55;;;;;;;56.23;32.70;;;;;;;;;;5027207;28;20476;-81
2021/12/14 10:19:23;;;;;;;64.77;36.00;;;;;;;;;;5025583;28;20450;-81
2021/12/14 10:21:51;;;;;;;66.03;36.87;;;;;;;;;;5027831;28;20492;-81
2021/12/14 10:24:17;;;;;;;58.17;34.03;;;;;;;;;;5027715;28;20538;-80
2021/12/14 10:26:47;;;;;;;64.93;35.80;;;;;;;;;;5027896;28;20547;-83
2021/12/14 10:29:13;;;;;;;60.80;34.23;;;;;;;;;;5028526;28;20461;-81
2021/12/14 10:31:44;;;;;;;62.77;35.50;;;;;;;;;;5026727;28;20450;-80
2021/12/14 10:34:14;;;;;;;66.03;38.00;;;;;;;;;;5029247;28;21022;-81
2021/12/14 10:36:44;;;;;;;65.27;38.37;;;;;;;;;;5026144;28;20549;-80
2021/12/14 10:39:24;;;;;;;65.57;37.63;;;;;;;;;;5028199;28;20448;-81
2021/12/14 10:44:40;;;;;;;68.33;35.03;;;;;;;;;;5026854;28;20432;-81
2021/12/14 10:47:09;;;;;;;59.17;34.73;;;;;;;;;;5026190;28;20528;-80
2021/12/14 10:49:36;;;;;;;64.40;37.00;;;;;;;;;;5025483;28;20453;-80
2021/12/14 10:52:05;;;;;;;61.23;33.83;;;;;;;;;;5026234;28;20473;-81
2021/12/14 10:54:31;;;;;;;68.27;36.33;;;;;;;;;;5027621;28;20450;-80
2021/12/14 10:56:59;;;;;;;66.67;39.00;;;;;;;;;;5025744;28;21012;-81
2021/12/14 10:59:27;;;;;;;65.03;37.53;;;;;;;;;;5025832;28;20485;-81
2021/12/14 11:01:53;;;;;;;71.13;39.77;;;;;;;;;;5025070;28;20468;-81
2021/12/14 11:04:23;;;;;;;68.40;37.93;;;;;;;;;;5026394;28;20502;-84
2021/12/14 11:06:52;;;;;;;69.53;37.33;;;;;;;;;;5025871;28;20465;-83
2021/12/14 11:12:08;;;;;;;67.43;36.63;;;;;;;;;;5026601;28;20476;-80
2021/12/14 11:14:37;;;;;;;72.83;40.53;;;;;;;;;;5027120;28;20445;-83
2021/12/14 11:19:52;;;;;;;77.90;40.00;;;;;;;;;;5025631;28;20815;-81
2021/12/14 11:22:22;;;;;;;72.20;41.90;;;;;;;;;;5026192;28;20491;-81
2021/12/14 11:24:51;;;;;;;72.70;39.73;;;;;;;;;;5027571;28;20453;-81
2021/12/14 11:27:19;;;;;;;68.17;38.20;;;;;;;;;;5027393;28;20516;-81
2021/12/14 11:29:45;;;;;;;71.63;38.20;;;;;;;;;;5026337;28;20507;-81
2021/12/14 11:32:16;;;;;;;71.43;38.63;;;;;;;;;;5025567;28;20469;-81
2021/12/14 11:34:45;;;;;;;72.20;40.30;;;;;;;;;;5027032;28;20453;-80
2021/12/14 11:37:15;;;;;;;70.53;39.07;;;;;;;;;;5026679;28;20464;-82
2021/12/14 11:39:44;;;;;;;75.17;39.57;;;;;;;;;;5027312;28;20484;-80
2021/12/14 11:42:11;;;;;;;70.83;39.57;;;;;;;;;;5024756;28;20475;-81
2021/12/14 11:44:38;;;;;;;75.60;39.30;;;;;;;;;;5025657;28;20906;-81
2021/12/14 11:47:08;;;;;;;86.70;41.20;;;;;;;;;;5024736;28;20469;-81
2021/12/14 11:49:47;;;;;;;75.97;40.60;;;;;;;;;;5026632;28;20437;-81
2021/12/14 11:52:31;;;;;;;82.70;41.33;;;;;;;;;;5025293;28;20528;-81
2021/12/14 11:54:58;;;;;;;79.17;41.03;;;;;;;;;;5027820;28;20457;-80
2021/12/14 11:57:31;;;;;;;76.67;39.53;;;;;;;;;;5029245;28;20832;-81
2021/12/14 12:00:00;;;;;;;70.60;38.50;;;;;;;;;;5026083;28;20446;-81
2021/12/14 12:02:27;;;;;;;73.83;40.97;;;;;;;;;;5026085;28;21022;-81
2021/12/14 12:04:54;;;;;;;73.13;41.90;;;;;;;;;;5026903;28;20445;-82
2021/12/14 12:10:06;;;;;;;76.87;40.03;;;;;;;;;;5028048;28;20424;-81
2021/12/14 12:12:34;;;;;;;76.17;42.77;;;;;;;;;;5024692;28;20472;-81
2021/12/14 12:15:01;;;;;;;75.90;40.80;;;;;;;;;;5026862;28;20458;-81
2021/12/14 12:17:33;;;;;;;79.67;40.80;;;;;;;;;;5026860;28;20473;-79
2021/12/14 12:20:03;;;;;;;76.40;40.43;;;;;;;;;;5027699;28;20468;-81
2021/12/14 12:22:35;;;;;;;90.77;42.00;;;;;;;;;;5025940;28;20534;-81
2021/12/14 12:25:02;;;;;;;83.17;39.87;;;;;;;;;;5026138;28;20914;-81
2021/12/14 12:27:33;;;;;;;88.00;45.13;;;;;;;;;;5025666;28;20465;-81
2021/12/14 12:30:29;;;;;;;83.97;43.50;;;;;;;;;;5027578;28;20459;-81
2021/12/14 12:32:56;;;;;;;89.53;43.77;;;;;;;;;;5031955;28;20548;-81
2021/12/14 12:35:24;;;;;;;90.83;44.57;;;;;;;;;;5027680;28;20472;-81
2021/12/14 12:37:52;;;;;;;81.00;40.27;;;;;;;;;;5030316;28;20468;-81
2021/12/14 12:40:20;;;;;;;82.03;44.10;;;;;;;;;;5029405;28;20429;-82
2021/12/14 12:42:46;;;;;;;83.80;45.67;;;;;;;;;;5026407;28;20485;-80
2021/12/14 12:45:25;;;;;;;85.90;44.87;;;;;;;;;;5028861;28;20503;-81
2021/12/14 12:47:51;;;;;;;91.23;44.70;;;;;;;;;;5030338;28;20898;-81
2021/12/14 12:50:17;;;;;;;86.57;43.30;;;;;;;;;;5031021;28;20503;-81
2021/12/14 12:52:44;;;;;;;89.43;45.57;;;;;;;;;;5028499;28;20485;-80
2021/12/14 12:55:12;;;;;;;92.27;43.80;;;;;;;;;;5025658;28;20468;-81
2021/12/14 12:57:44;;;;;;;89.93;43.90;;;;;;;;;;5029027;28;21022;-81
2021/12/14 13:00:35;;;;;;;87.23;44.47;;;;;;;;;;5026532;28;20513;-81
2021/12/14 13:03:03;;;;;;;89.93;45.73;;;;;;;;;;5029663;28;20917;-81
2021/12/14 13:05:32;;;;;;;86.57;45.27;;;;;;;;;;5028450;28;20487;-82
2021/12/14 13:08:05;;;;;;;80.43;42.43;;;;;;;;;;5029130;28;21010;-80
2021/12/14 13:10:35;;;;;;;91.23;44.33;;;;;;;;;;5028063;28;20452;-81
2021/12/14 13:13:04;;;;;;;86.67;44.10;;;;;;;;;;5026595;28;20489;-81
2021/12/14 13:15:32;;;;;;;92.27;46.47;;;;;;;;;;5029198;28;20481;-81
2021/12/14 13:18:17;;;;;;;91.40;43.57;;;;;;;;;;5028547;28;20472;-79
2021/12/14 13:20:44;;;;;;;96.93;45.87;;;;;;;;;;5029407;28;20453;-79
2021/12/14 13:23:10;;;;;;;85.00;45.23;;;;;;;;;;5028242;28;20480;-82
2021/12/14 13:25:39;;;;;;;92.00;47.03;;;;;;;;;;5028379;28;20453;-81
2021/12/14 13:28:06;;;;;;;85.83;46.63;;;;;;;;;;5029171;28;20896;-81
2021/12/14 13:30:33;;;;;;;90.80;43.80;;;;;;;;;;5029439;28;20500;-82
2021/12/14 13:32:59;;;;;;;94.17;46.30;;;;;;;;;;5028718;28;20899;-82
2021/12/14 13:35:28;;;;;;;89.77;47.00;;;;;;;;;;5029440;28;20449;-82
2021/12/14 13:37:56;;;;;;;95.20;46.10;;;;;;;;;;5028966;28;20572;-81
2021/12/14 13:40:24;;;;;;;101.97;49.53;;;;;;;;;;5028413;28;20476;-81
2021/12/14 13:42:54;;;;;;;93.30;43.03;;;;;;;;;;5029306;28;20469;-81
2021/12/14 13:45:22;;;;;;;82.93;43.67;;;;;;;;;;5028070;28;20453;-81
2021/12/14 13:47:49;;;;;;;86.63;42.63;;;;;;;;;;5028786;28;20536;-81
2021/12/14 13:50:20;;;;;;;88.70;42.90;;;;;;;;;;5027784;28;20935;-81
2021/12/14 13:52:47;;;;;;;86.77;43.33;;;;;;;;;;5027411;28;20481;-81
2021/12/14 13:55:17;;;;;;;89.30;43.57;;;;;;;;;;5026761;28;20970;-82
2021/12/14 13:57:45;;;;;;;90.07;43.27;;;;;;;;;;5025498;28;20483;-80
2021/12/14 14:00:15;;;;;;;85.40;42.33;;;;;;;;;;5026681;28;20912;-81
2021/12/14 14:02:41;;;;;;;82.60;41.20;;;;;;;;;;5026178;28;20478;-81
2021/12/14 14:05:08;;;;;;;74.13;40.80;;;;;;;;;;5027335;28;20454;-81
2021/12/14 14:07:35;;;;;;;74.90;41.40;;;;;;;;;;5026755;28;20485;-81
2021/12/14 14:10:01;;;;;;;78.43;41.40;;;;;;;;;;5027181;28;20502;-81
2021/12/14 14:12:29;;;;;;;79.90;40.30;;;;;;;;;;5026177;28;20505;-81
2021/12/14 14:14:56;;;;;;;82.73;39.23;;;;;;;;;;5026845;28;20442;-81
2021/12/14 14:17:24;;;;;;;88.63;40.47;;;;;;;;;;5026246;28;20539;-81
2021/12/14 14:19:53;;;;;;;82.63;42.37;;;;;;;;;;5025810;28;20449;-81
2021/12/14 14:22:25;;;;;;;75.80;39.90;;;;;;;;;;5025980;28;20477;-81
2021/12/14 14:24:56;;;;;;;79.97;39.43;;;;;;;;;;5026002;28;20449;-81
2021/12/14 14:27:33;;;;;;;77.53;40.97;;;;;;;;;;5029047;28;20468;-81
2021/12/14 14:29:59;;;;;;;71.13;38.67;;;;;;;;;;5026878;28;20975;-81
2021/12/14 14:32:31;;;;;;;69.57;37.57;;;;;;;;;;5027967;28;20480;-81
2021/12/14 14:35:00;;;;;;;85.43;40.43;;;;;;;;;;5026194;28;20450;-82
2021/12/14 14:37:27;;;;;;;72.73;37.40;;;;;;;;;;5026070;28;20492;-81
2021/12/14 14:39:55;;;;;;;74.80;40.43;;;;;;;;;;5026851;28;20430;-81
2021/12/14 14:42:22;;;;;;;69.37;37.27;;;;;;;;;;5027789;28;20473;-81
2021/12/14 14:44:49;;;;;;;73.80;37.63;;;;;;;;;;5028878;28;20457;-81
2021/12/14 14:47:26;;;;;;;67.43;36.43;;;;;;;;;;5027171;28;20506;-82
2021/12/14 14:49:56;;;;;;;80.07;40.13;;;;;;;;;;5026815;28;20501;-81
2021/12/14 14:52:23;;;;;;;78.83;39.27;;;;;;;;;;5025674;28;20461;-81